DLH159 LUKK-EDDF
Flight info
| Callsign | DLH159 |
|---|---|
| Flight time | 2h 25m |
| Altitude | 36000 |
| Route | NUNTA2K NUNTA DCT PASKA DCT REPTO DCT PITOK DCT ELMEK DCT RAPET T170 VAGAB/N0375F240 T170 GAPLA T178 KERAX KERAX5A |
| Aircraft | A319/M-SDE3FGHIRWY/LB1 |
Departure
| Time | 2026-04-13 12:28 |
|---|---|
| Airport | Chişinău International Airport (LUKK) |
Arrival
| Time | 2026-04-13 14:53 |
|---|---|
| Airport | Frankfurt Main Airport (EDDF) |
| Time | Latitude | Longitude | Altitude | Speed | Heading |
|---|---|---|---|---|---|
| 2026-04-13 12:07 | 46.93258 | 28.93749 | 408 ft | 0 kts | 99° |
| 2026-04-13 12:23 | 46.93257 | 28.93763 | 408 ft | 3 kts | 99° |
| 2026-04-13 12:23 | 46.93249 | 28.93811 | 406 ft | 5 kts | 121° |
| 2026-04-13 12:23 | 46.93210 | 28.93813 | 408 ft | 6 kts | 185° |
| 2026-04-13 12:24 | 46.93157 | 28.93805 | 408 ft | 9 kts | 188° |
| 2026-04-13 12:24 | 46.93124 | 28.93742 | 408 ft | 10 kts | 273° |
| 2026-04-13 12:24 | 46.93139 | 28.93573 | 410 ft | 20 kts | 277° |
| 2026-04-13 12:24 | 46.93156 | 28.93367 | 410 ft | 23 kts | 277° |
| 2026-04-13 12:25 | 46.93178 | 28.93134 | 410 ft | 24 kts | 278° |
| 2026-04-13 12:25 | 46.93201 | 28.92872 | 408 ft | 27 kts | 277° |
| 2026-04-13 12:25 | 46.93225 | 28.92600 | 406 ft | 27 kts | 278° |
| 2026-04-13 12:25 | 46.93244 | 28.92322 | 407 ft | 27 kts | 277° |
| 2026-04-13 12:26 | 46.93258 | 28.92067 | 407 ft | 19 kts | 251° |
| 2026-04-13 12:26 | 46.93154 | 28.92005 | 408 ft | 16 kts | 193° |
| 2026-04-13 12:26 | 46.93036 | 28.91984 | 408 ft | 18 kts | 179° |
| 2026-04-13 12:26 | 46.92914 | 28.91995 | 408 ft | 18 kts | 178° |
| 2026-04-13 12:27 | 46.92792 | 28.91999 | 409 ft | 17 kts | 175° |
| 2026-04-13 12:27 | 46.92775 | 28.92612 | 409 ft | 88 kts | 89° |
| 2026-04-13 12:27 | 46.92800 | 28.93900 | 410 ft | 162 kts | 88° |
| 2026-04-13 12:28 | 46.92841 | 28.95643 | 968 ft | 175 kts | 86° |
| 2026-04-13 12:28 | 46.92886 | 28.97463 | 1786 ft | 184 kts | 86° |
| 2026-04-13 12:28 | 46.92933 | 28.99359 | 2525 ft | 194 kts | 86° |
| 2026-04-13 12:28 | 46.92972 | 29.01397 | 3167 ft | 206 kts | 88° |
| 2026-04-13 12:29 | 46.93007 | 29.03510 | 3871 ft | 210 kts | 87° |
| 2026-04-13 12:29 | 46.93223 | 29.05734 | 4240 ft | 234 kts | 64° |
| 2026-04-13 12:29 | 46.94361 | 29.07515 | 4722 ft | 253 kts | 25° |
| 2026-04-13 12:29 | 46.96106 | 29.07887 | 5544 ft | 260 kts | 348° |
| 2026-04-13 12:30 | 46.97689 | 29.06643 | 6483 ft | 265 kts | 314° |
| 2026-04-13 12:30 | 46.98732 | 29.04406 | 7418 ft | 268 kts | 298° |
| 2026-04-13 12:30 | 46.99508 | 29.01909 | 8382 ft | 271 kts | 292° |
| 2026-04-13 12:30 | 47.00214 | 28.99333 | 9334 ft | 274 kts | 292° |
| 2026-04-13 12:31 | 47.00940 | 28.96738 | 10278 ft | 277 kts | 293° |
| 2026-04-13 12:31 | 47.01730 | 28.94081 | 10778 ft | 295 kts | 295° |
| 2026-04-13 12:31 | 47.02616 | 28.91259 | 11249 ft | 311 kts | 296° |
| 2026-04-13 12:31 | 47.03546 | 28.88411 | 12059 ft | 315 kts | 297° |
| 2026-04-13 12:32 | 47.04512 | 28.85515 | 12962 ft | 317 kts | 297° |
| 2026-04-13 12:32 | 47.05493 | 28.82611 | 13877 ft | 318 kts | 298° |
| 2026-04-13 12:32 | 47.06480 | 28.79699 | 14693 ft | 319 kts | 298° |
| 2026-04-13 12:32 | 47.07462 | 28.76795 | 15535 ft | 317 kts | 299° |
| 2026-04-13 12:33 | 47.08435 | 28.73904 | 16398 ft | 315 kts | 300° |
| 2026-04-13 12:33 | 47.09400 | 28.71030 | 17268 ft | 313 kts | 300° |
| 2026-04-13 12:33 | 47.10359 | 28.68171 | 18126 ft | 311 kts | 300° |
| 2026-04-13 12:33 | 47.11146 | 28.65207 | 18883 ft | 316 kts | 291° |
| 2026-04-13 12:34 | 47.11442 | 28.61960 | 19527 ft | 327 kts | 279° |
| 2026-04-13 12:34 | 47.11408 | 28.58602 | 20146 ft | 329 kts | 278° |
| 2026-04-13 12:34 | 47.11368 | 28.55239 | 20755 ft | 331 kts | 278° |
| 2026-04-13 12:34 | 47.11327 | 28.51847 | 21349 ft | 333 kts | 278° |
| 2026-04-13 12:35 | 47.11287 | 28.48439 | 21924 ft | 335 kts | 278° |
| 2026-04-13 12:35 | 47.11246 | 28.45001 | 22473 ft | 338 kts | 278° |
| 2026-04-13 12:35 | 47.11204 | 28.41547 | 23061 ft | 340 kts | 279° |
| 2026-04-13 12:35 | 47.11164 | 28.38069 | 23649 ft | 342 kts | 279° |
| 2026-04-13 12:36 | 47.11125 | 28.34572 | 24139 ft | 344 kts | 279° |
| 2026-04-13 12:36 | 47.11084 | 28.31049 | 24570 ft | 347 kts | 278° |
| 2026-04-13 12:36 | 47.11039 | 28.27500 | 25013 ft | 349 kts | 278° |
| 2026-04-13 12:36 | 47.10993 | 28.23972 | 25433 ft | 351 kts | 278° |
| 2026-04-13 12:37 | 47.10944 | 28.20323 | 25858 ft | 354 kts | 278° |
| 2026-04-13 12:37 | 47.10895 | 28.16700 | 26257 ft | 356 kts | 278° |
| 2026-04-13 12:37 | 47.10846 | 28.13104 | 26646 ft | 359 kts | 278° |
| 2026-04-13 12:37 | 47.10791 | 28.09424 | 27028 ft | 362 kts | 278° |
| 2026-04-13 12:38 | 47.10734 | 28.05722 | 27400 ft | 364 kts | 277° |
| 2026-04-13 12:38 | 47.10679 | 28.01988 | 27784 ft | 367 kts | 277° |
| 2026-04-13 12:38 | 47.10623 | 27.98225 | 28150 ft | 370 kts | 277° |
| 2026-04-13 12:38 | 47.10564 | 27.94434 | 28343 ft | 372 kts | 277° |
| 2026-04-13 12:39 | 47.10501 | 27.90620 | 28750 ft | 375 kts | 277° |
| 2026-04-13 12:39 | 47.10492 | 27.86794 | 29129 ft | 372 kts | 282° |
| 2026-04-13 12:39 | 47.10893 | 27.83081 | 29500 ft | 366 kts | 290° |
| 2026-04-13 12:39 | 47.11537 | 27.79462 | 29858 ft | 368 kts | 291° |
| 2026-04-13 12:40 | 47.12183 | 27.75808 | 30214 ft | 371 kts | 291° |
| 2026-04-13 12:40 | 47.12829 | 27.72126 | 30533 ft | 373 kts | 290° |
| 2026-04-13 12:40 | 47.13477 | 27.68423 | 30839 ft | 375 kts | 290° |
| 2026-04-13 12:40 | 47.14127 | 27.64695 | 31144 ft | 377 kts | 290° |
| 2026-04-13 12:41 | 47.14768 | 27.61005 | 31443 ft | 379 kts | 290° |
| 2026-04-13 12:41 | 47.15419 | 27.57245 | 31734 ft | 381 kts | 290° |
| 2026-04-13 12:41 | 47.16066 | 27.53474 | 32128 ft | 380 kts | 289° |
| 2026-04-13 12:41 | 47.16707 | 27.49717 | 32564 ft | 378 kts | 289° |
| 2026-04-13 12:42 | 47.17346 | 27.45977 | 32980 ft | 377 kts | 289° |
| 2026-04-13 12:42 | 47.17986 | 27.42254 | 33394 ft | 376 kts | 289° |
| 2026-04-13 12:42 | 47.18624 | 27.38535 | 33834 ft | 374 kts | 289° |
| 2026-04-13 12:42 | 47.19258 | 27.34827 | 34257 ft | 373 kts | 289° |
| 2026-04-13 12:43 | 47.19891 | 27.31127 | 34600 ft | 373 kts | 289° |
| 2026-04-13 12:43 | 47.20523 | 27.27426 | 34890 ft | 374 kts | 289° |
| 2026-04-13 12:43 | 47.21155 | 27.23710 | 35143 ft | 375 kts | 289° |
| 2026-04-13 12:43 | 47.21785 | 27.19989 | 35387 ft | 376 kts | 289° |
| 2026-04-13 12:44 | 47.22415 | 27.16242 | 35624 ft | 377 kts | 288° |
| 2026-04-13 12:44 | 47.23046 | 27.12494 | 35859 ft | 378 kts | 288° |
| 2026-04-13 12:44 | 47.23680 | 27.08726 | 36093 ft | 380 kts | 288° |
| 2026-04-13 12:44 | 47.24318 | 27.04950 | 36232 ft | 381 kts | 288° |
| 2026-04-13 12:45 | 47.25576 | 26.97454 | 36263 ft | 375 kts | 288° |
| 2026-04-13 12:45 | 47.26810 | 26.90046 | 36263 ft | 375 kts | 288° |
| 2026-04-13 12:46 | 47.28049 | 26.82593 | 36265 ft | 375 kts | 288° |
| 2026-04-13 12:46 | 47.29285 | 26.75130 | 36263 ft | 375 kts | 288° |
| 2026-04-13 12:47 | 47.30510 | 26.67653 | 36262 ft | 375 kts | 288° |
| 2026-04-13 12:47 | 47.31736 | 26.60175 | 36254 ft | 376 kts | 288° |
| 2026-04-13 12:48 | 47.32951 | 26.52736 | 36250 ft | 376 kts | 288° |
| 2026-04-13 12:48 | 47.34100 | 26.45211 | 36248 ft | 377 kts | 285° |
| 2026-04-13 12:49 | 47.35087 | 26.37598 | 36248 ft | 378 kts | 285° |
| 2026-04-13 12:49 | 47.36041 | 26.29986 | 36246 ft | 378 kts | 285° |
| 2026-04-13 12:50 | 47.37017 | 26.22369 | 36242 ft | 378 kts | 285° |
| 2026-04-13 12:50 | 47.38002 | 26.14802 | 36234 ft | 378 kts | 285° |
| 2026-04-13 12:51 | 47.38996 | 26.07174 | 36234 ft | 378 kts | 285° |
| 2026-04-13 12:51 | 47.39974 | 25.99547 | 36235 ft | 379 kts | 284° |
| 2026-04-13 12:52 | 47.40950 | 25.91890 | 36227 ft | 380 kts | 284° |
| 2026-04-13 12:52 | 47.41921 | 25.84221 | 36229 ft | 380 kts | 284° |
| 2026-04-13 12:53 | 47.42888 | 25.76533 | 36219 ft | 381 kts | 284° |
| 2026-04-13 12:53 | 47.43854 | 25.68849 | 36215 ft | 381 kts | 284° |
| 2026-04-13 12:54 | 47.44813 | 25.61191 | 36206 ft | 381 kts | 284° |
| 2026-04-13 12:54 | 47.45766 | 25.53473 | 36207 ft | 382 kts | 284° |
| 2026-04-13 12:55 | 47.46712 | 25.45753 | 36203 ft | 382 kts | 284° |
| 2026-04-13 12:55 | 47.47664 | 25.38011 | 36196 ft | 383 kts | 284° |
| 2026-04-13 12:56 | 47.48612 | 25.30263 | 36192 ft | 383 kts | 283° |
| 2026-04-13 12:56 | 47.49541 | 25.22566 | 36189 ft | 383 kts | 283° |
| 2026-04-13 12:57 | 47.50478 | 25.14792 | 36183 ft | 384 kts | 283° |
| 2026-04-13 12:57 | 47.51411 | 25.07014 | 36177 ft | 384 kts | 283° |
| 2026-04-13 12:58 | 47.52333 | 24.99216 | 36171 ft | 385 kts | 283° |
| 2026-04-13 12:58 | 47.53255 | 24.91425 | 36159 ft | 385 kts | 283° |
| 2026-04-13 12:59 | 47.54179 | 24.83608 | 36158 ft | 385 kts | 283° |
| 2026-04-13 12:59 | 47.55080 | 24.75830 | 36148 ft | 386 kts | 283° |
| 2026-04-13 13:00 | 47.55986 | 24.68000 | 36145 ft | 386 kts | 283° |
| 2026-04-13 13:00 | 47.56893 | 24.60153 | 36133 ft | 387 kts | 283° |
| 2026-04-13 13:01 | 47.57793 | 24.52283 | 36131 ft | 388 kts | 283° |
| 2026-04-13 13:01 | 47.58693 | 24.44413 | 36131 ft | 388 kts | 283° |
| 2026-04-13 13:02 | 47.59591 | 24.36515 | 36123 ft | 389 kts | 282° |
| 2026-04-13 13:02 | 47.60481 | 24.28606 | 36124 ft | 389 kts | 282° |
| 2026-04-13 13:03 | 47.61364 | 24.20688 | 36119 ft | 390 kts | 282° |
| 2026-04-13 13:03 | 47.62238 | 24.12814 | 36121 ft | 390 kts | 282° |
| 2026-04-13 13:04 | 47.63110 | 24.04863 | 36112 ft | 391 kts | 282° |
| 2026-04-13 13:04 | 47.64255 | 23.97016 | 36114 ft | 388 kts | 289° |
| 2026-04-13 13:05 | 47.65854 | 23.89352 | 36119 ft | 389 kts | 289° |
| 2026-04-13 13:05 | 47.67446 | 23.81672 | 36119 ft | 390 kts | 289° |
| 2026-04-13 13:06 | 47.69033 | 23.73970 | 36121 ft | 390 kts | 289° |
| 2026-04-13 13:06 | 47.70612 | 23.66253 | 36122 ft | 391 kts | 289° |
| 2026-04-13 13:07 | 47.72176 | 23.58579 | 36122 ft | 391 kts | 288° |
| 2026-04-13 13:07 | 47.73748 | 23.50832 | 36124 ft | 392 kts | 288° |
| 2026-04-13 13:08 | 47.75324 | 23.43082 | 36118 ft | 392 kts | 288° |
| 2026-04-13 13:08 | 47.76899 | 23.35318 | 36118 ft | 393 kts | 288° |
| 2026-04-13 13:09 | 47.78462 | 23.27533 | 36118 ft | 393 kts | 288° |
| 2026-04-13 13:09 | 47.80025 | 23.19735 | 36122 ft | 394 kts | 288° |
| 2026-04-13 13:10 | 47.81582 | 23.11923 | 36125 ft | 394 kts | 288° |
| 2026-04-13 13:10 | 47.83122 | 23.04149 | 36120 ft | 394 kts | 288° |
| 2026-04-13 13:11 | 47.84669 | 22.96314 | 36119 ft | 395 kts | 288° |
| 2026-04-13 13:11 | 47.86223 | 22.88458 | 36119 ft | 395 kts | 288° |
| 2026-04-13 13:12 | 47.87766 | 22.80587 | 36123 ft | 396 kts | 287° |
| 2026-04-13 13:12 | 47.89302 | 22.72707 | 36122 ft | 396 kts | 287° |
| 2026-04-13 13:13 | 47.90843 | 22.64821 | 36120 ft | 397 kts | 287° |
| 2026-04-13 13:13 | 47.92383 | 22.56910 | 36113 ft | 397 kts | 287° |
| 2026-04-13 13:14 | 47.93912 | 22.48995 | 36122 ft | 398 kts | 287° |
| 2026-04-13 13:14 | 47.95437 | 22.41060 | 36122 ft | 398 kts | 287° |
| 2026-04-13 13:15 | 47.96697 | 22.34457 | 36122 ft | 398 kts | 287° |
| 2026-04-13 13:15 | 47.98212 | 22.26500 | 36116 ft | 399 kts | 287° |
| 2026-04-13 13:16 | 47.99722 | 22.18529 | 36120 ft | 399 kts | 287° |
| 2026-04-13 13:16 | 48.01232 | 22.10553 | 36121 ft | 399 kts | 287° |
| 2026-04-13 13:17 | 48.02742 | 22.02561 | 36124 ft | 400 kts | 286° |
| 2026-04-13 13:17 | 48.04247 | 21.94562 | 36124 ft | 400 kts | 286° |
| 2026-04-13 13:18 | 48.05746 | 21.86560 | 36125 ft | 401 kts | 286° |
| 2026-04-13 13:18 | 48.07239 | 21.78521 | 36125 ft | 401 kts | 286° |
| 2026-04-13 13:19 | 48.08732 | 21.70485 | 36125 ft | 401 kts | 286° |
| 2026-04-13 13:19 | 48.10219 | 21.62430 | 36123 ft | 402 kts | 285° |
| 2026-04-13 13:20 | 48.11695 | 21.54362 | 36120 ft | 402 kts | 285° |
| 2026-04-13 13:20 | 48.13169 | 21.46278 | 36121 ft | 403 kts | 285° |
| 2026-04-13 13:21 | 48.14641 | 21.38181 | 36118 ft | 403 kts | 285° |
| 2026-04-13 13:21 | 48.16110 | 21.30072 | 36117 ft | 404 kts | 285° |
| 2026-04-13 13:22 | 48.17577 | 21.21953 | 36117 ft | 404 kts | 285° |
| 2026-04-13 13:22 | 48.19043 | 21.13819 | 36110 ft | 404 kts | 285° |
| 2026-04-13 13:23 | 48.20496 | 21.05673 | 36112 ft | 405 kts | 285° |
| 2026-04-13 13:23 | 48.21947 | 20.97509 | 36114 ft | 405 kts | 284° |
| 2026-04-13 13:24 | 48.23391 | 20.89340 | 36110 ft | 406 kts | 284° |
| 2026-04-13 13:24 | 48.24836 | 20.81156 | 36111 ft | 406 kts | 284° |
| 2026-04-13 13:25 | 48.26264 | 20.73020 | 36106 ft | 406 kts | 284° |
| 2026-04-13 13:26 | 48.28412 | 20.60685 | 36103 ft | 407 kts | 284° |
| 2026-04-13 13:26 | 48.29843 | 20.52459 | 36102 ft | 407 kts | 284° |
| 2026-04-13 13:27 | 48.31267 | 20.44209 | 36098 ft | 408 kts | 284° |
| 2026-04-13 13:27 | 48.32803 | 20.36008 | 36095 ft | 409 kts | 291° |
| 2026-04-13 13:28 | 48.35039 | 20.28151 | 36092 ft | 409 kts | 292° |
| 2026-04-13 13:28 | 48.37279 | 20.20281 | 36091 ft | 410 kts | 292° |
| 2026-04-13 13:29 | 48.39511 | 20.12379 | 36091 ft | 410 kts | 292° |
| 2026-04-13 13:29 | 48.41737 | 20.04476 | 36091 ft | 410 kts | 292° |
| 2026-04-13 13:30 | 48.43963 | 19.96553 | 36090 ft | 411 kts | 292° |
| 2026-04-13 13:30 | 48.46180 | 19.88622 | 36094 ft | 411 kts | 291° |
| 2026-04-13 13:31 | 48.48390 | 19.80687 | 36091 ft | 411 kts | 291° |
| 2026-04-13 13:31 | 48.50597 | 19.72752 | 36094 ft | 411 kts | 291° |
| 2026-04-13 13:32 | 48.52800 | 19.64804 | 36091 ft | 410 kts | 291° |
| 2026-04-13 13:32 | 48.54995 | 19.56857 | 36090 ft | 410 kts | 291° |
| 2026-04-13 13:33 | 48.57186 | 19.48902 | 36082 ft | 410 kts | 291° |
| 2026-04-13 13:33 | 48.59364 | 19.40927 | 36078 ft | 411 kts | 291° |
| 2026-04-13 13:34 | 48.61545 | 19.32943 | 36072 ft | 411 kts | 291° |
| 2026-04-13 13:34 | 48.63728 | 19.24942 | 36069 ft | 411 kts | 291° |
| 2026-04-13 13:35 | 48.65904 | 19.16933 | 36061 ft | 412 kts | 291° |
| 2026-04-13 13:35 | 48.68058 | 19.08968 | 36058 ft | 412 kts | 290° |
| 2026-04-13 13:36 | 48.70226 | 19.00925 | 36050 ft | 412 kts | 290° |
| 2026-04-13 13:36 | 48.72388 | 18.92881 | 36046 ft | 413 kts | 290° |
| 2026-04-13 13:37 | 48.74548 | 18.84825 | 36050 ft | 413 kts | 290° |
| 2026-04-13 13:37 | 48.76702 | 18.76756 | 36041 ft | 413 kts | 290° |
| 2026-04-13 13:38 | 48.78855 | 18.68677 | 36029 ft | 413 kts | 290° |
| 2026-04-13 13:38 | 48.81007 | 18.60578 | 36031 ft | 414 kts | 290° |
| 2026-04-13 13:39 | 48.83144 | 18.52459 | 36027 ft | 414 kts | 290° |
| 2026-04-13 13:39 | 48.85275 | 18.44328 | 36023 ft | 415 kts | 289° |
| 2026-04-13 13:40 | 48.87401 | 18.36228 | 36026 ft | 415 kts | 289° |
| 2026-04-13 13:40 | 48.89545 | 18.28010 | 36024 ft | 416 kts | 289° |
| 2026-04-13 13:41 | 48.91676 | 18.19814 | 36026 ft | 417 kts | 289° |
| 2026-04-13 13:41 | 48.93811 | 18.11599 | 36026 ft | 418 kts | 289° |
| 2026-04-13 13:42 | 48.95943 | 18.03357 | 36018 ft | 419 kts | 289° |
| 2026-04-13 13:42 | 48.98073 | 17.95103 | 36019 ft | 419 kts | 289° |
| 2026-04-13 13:43 | 49.00196 | 17.86834 | 36014 ft | 420 kts | 289° |
| 2026-04-13 13:43 | 49.02313 | 17.78543 | 36015 ft | 420 kts | 289° |
| 2026-04-13 13:44 | 49.04429 | 17.70231 | 36014 ft | 421 kts | 289° |
| 2026-04-13 13:44 | 49.06538 | 17.61910 | 36015 ft | 421 kts | 289° |
| 2026-04-13 13:45 | 49.08653 | 17.53574 | 36014 ft | 422 kts | 289° |
| 2026-04-13 13:45 | 49.10756 | 17.45209 | 36012 ft | 423 kts | 289° |
| 2026-04-13 13:46 | 49.12842 | 17.36870 | 36015 ft | 424 kts | 289° |
| 2026-04-13 13:46 | 49.14950 | 17.28465 | 36012 ft | 424 kts | 289° |
| 2026-04-13 13:47 | 49.17057 | 17.20023 | 36014 ft | 425 kts | 288° |
| 2026-04-13 13:47 | 49.19159 | 17.11567 | 36015 ft | 426 kts | 288° |
| 2026-04-13 13:48 | 49.21250 | 17.03095 | 36019 ft | 426 kts | 288° |
| 2026-04-13 13:48 | 49.23339 | 16.94613 | 36019 ft | 426 kts | 288° |
| 2026-04-13 13:49 | 49.25422 | 16.86113 | 36015 ft | 427 kts | 288° |
| 2026-04-13 13:49 | 49.27503 | 16.77610 | 36016 ft | 427 kts | 288° |
| 2026-04-13 13:50 | 49.29583 | 16.69075 | 36016 ft | 427 kts | 288° |
| 2026-04-13 13:50 | 49.31653 | 16.60536 | 36013 ft | 428 kts | 288° |
| 2026-04-13 13:51 | 49.33714 | 16.51969 | 36010 ft | 428 kts | 288° |
| 2026-04-13 13:51 | 49.35780 | 16.43389 | 36002 ft | 429 kts | 287° |
| 2026-04-13 13:52 | 49.37843 | 16.34788 | 36000 ft | 429 kts | 287° |
| 2026-04-13 13:52 | 49.39897 | 16.26186 | 35997 ft | 430 kts | 287° |
| 2026-04-13 13:53 | 49.41953 | 16.17558 | 35997 ft | 430 kts | 287° |
| 2026-04-13 13:53 | 49.44007 | 16.08904 | 35991 ft | 431 kts | 287° |
| 2026-04-13 13:54 | 49.46048 | 16.00247 | 35982 ft | 431 kts | 287° |
| 2026-04-13 13:54 | 49.48083 | 15.91569 | 35973 ft | 432 kts | 287° |
| 2026-04-13 13:55 | 49.50117 | 15.82877 | 35967 ft | 432 kts | 287° |
| 2026-04-13 13:55 | 49.51809 | 15.75630 | 35963 ft | 433 kts | 287° |
| 2026-04-13 13:56 | 49.53835 | 15.66902 | 35957 ft | 433 kts | 286° |
| 2026-04-13 13:56 | 49.55854 | 15.58154 | 35955 ft | 434 kts | 286° |
| 2026-04-13 13:57 | 49.57881 | 15.49380 | 35950 ft | 435 kts | 287° |
| 2026-04-13 13:57 | 49.59901 | 15.40590 | 35946 ft | 435 kts | 286° |
| 2026-04-13 13:58 | 49.61916 | 15.31784 | 35941 ft | 436 kts | 286° |
| 2026-04-13 13:58 | 49.63928 | 15.22956 | 35941 ft | 437 kts | 286° |
| 2026-04-13 13:59 | 49.65930 | 15.14096 | 35941 ft | 437 kts | 286° |
| 2026-04-13 13:59 | 49.67932 | 15.05208 | 35942 ft | 438 kts | 286° |
| 2026-04-13 14:00 | 49.69918 | 14.96383 | 35942 ft | 438 kts | 286° |
| 2026-04-13 14:00 | 49.71905 | 14.87484 | 35941 ft | 439 kts | 286° |
| 2026-04-13 14:01 | 49.73898 | 14.78563 | 35940 ft | 439 kts | 286° |
| 2026-04-13 14:01 | 49.75882 | 14.69639 | 35941 ft | 439 kts | 286° |
| 2026-04-13 14:02 | 49.77850 | 14.60704 | 35949 ft | 439 kts | 286° |
| 2026-04-13 14:02 | 49.79814 | 14.51766 | 35947 ft | 439 kts | 286° |
| 2026-04-13 14:03 | 49.81777 | 14.42817 | 35941 ft | 439 kts | 285° |
| 2026-04-13 14:03 | 49.83730 | 14.33854 | 35932 ft | 439 kts | 285° |
| 2026-04-13 14:04 | 49.85679 | 14.24896 | 35939 ft | 439 kts | 285° |
| 2026-04-13 14:04 | 49.87625 | 14.15906 | 35935 ft | 439 kts | 285° |
| 2026-04-13 14:05 | 49.89561 | 14.06905 | 35935 ft | 439 kts | 285° |
| 2026-04-13 14:05 | 49.91409 | 13.97881 | 35926 ft | 438 kts | 283° |
| 2026-04-13 14:06 | 49.93010 | 13.88755 | 35915 ft | 437 kts | 281° |
| 2026-04-13 14:06 | 49.94525 | 13.79672 | 35904 ft | 437 kts | 281° |
| 2026-04-13 14:07 | 49.96092 | 13.70537 | 35897 ft | 438 kts | 282° |
| 2026-04-13 14:07 | 49.97697 | 13.61405 | 35892 ft | 438 kts | 282° |
| 2026-04-13 14:08 | 49.99299 | 13.52260 | 35890 ft | 438 kts | 282° |
| 2026-04-13 14:08 | 50.00875 | 13.43112 | 35894 ft | 438 kts | 281° |
| 2026-04-13 14:09 | 50.02434 | 13.33949 | 35892 ft | 439 kts | 281° |
| 2026-04-13 14:09 | 50.03992 | 13.24772 | 35901 ft | 439 kts | 281° |
| 2026-04-13 14:10 | 50.05558 | 13.15588 | 35911 ft | 439 kts | 281° |
| 2026-04-13 14:10 | 50.07114 | 13.06402 | 35914 ft | 438 kts | 281° |
| 2026-04-13 14:11 | 50.08642 | 12.97280 | 35916 ft | 438 kts | 281° |
| 2026-04-13 14:11 | 50.10166 | 12.88102 | 35917 ft | 438 kts | 281° |
| 2026-04-13 14:12 | 50.11693 | 12.78916 | 35916 ft | 438 kts | 281° |
| 2026-04-13 14:12 | 50.13215 | 12.69721 | 35907 ft | 438 kts | 281° |
| 2026-04-13 14:13 | 50.14725 | 12.60539 | 35904 ft | 438 kts | 281° |
| 2026-04-13 14:13 | 50.16226 | 12.51327 | 35897 ft | 438 kts | 280° |
| 2026-04-13 14:14 | 50.18461 | 12.37517 | 35886 ft | 438 kts | 280° |
| 2026-04-13 14:14 | 50.20293 | 12.28497 | 35887 ft | 441 kts | 286° |
| 2026-04-13 14:15 | 50.22389 | 12.19443 | 35896 ft | 441 kts | 286° |
| 2026-04-13 14:15 | 50.24436 | 12.10478 | 35901 ft | 441 kts | 286° |
| 2026-04-13 14:16 | 50.26490 | 12.01446 | 35908 ft | 441 kts | 285° |
| 2026-04-13 14:16 | 50.28558 | 11.92417 | 35913 ft | 442 kts | 286° |
| 2026-04-13 14:17 | 50.30634 | 11.83367 | 35911 ft | 442 kts | 285° |
| 2026-04-13 14:17 | 50.32703 | 11.74302 | 35916 ft | 442 kts | 285° |
| 2026-04-13 14:18 | 50.34755 | 11.65247 | 35913 ft | 442 kts | 285° |
| 2026-04-13 14:18 | 50.36793 | 11.56223 | 35915 ft | 443 kts | 285° |
| 2026-04-13 14:19 | 50.38841 | 11.47112 | 35913 ft | 443 kts | 285° |
| 2026-04-13 14:19 | 50.40885 | 11.38008 | 35901 ft | 443 kts | 285° |
| 2026-04-13 14:20 | 50.41905 | 11.33441 | 35642 ft | 444 kts | 285° |
| 2026-04-13 14:20 | 50.42925 | 11.28871 | 35393 ft | 444 kts | 285° |
| 2026-04-13 14:20 | 50.43943 | 11.24293 | 35145 ft | 445 kts | 285° |
| 2026-04-13 14:20 | 50.44956 | 11.19704 | 34898 ft | 445 kts | 285° |
| 2026-04-13 14:21 | 50.45965 | 11.15121 | 34644 ft | 444 kts | 284° |
| 2026-04-13 14:21 | 50.46971 | 11.10544 | 34410 ft | 443 kts | 284° |
| 2026-04-13 14:21 | 50.47976 | 11.05974 | 34167 ft | 442 kts | 284° |
| 2026-04-13 14:21 | 50.48977 | 11.01416 | 33928 ft | 441 kts | 284° |
| 2026-04-13 14:22 | 50.49970 | 10.96875 | 33653 ft | 440 kts | 284° |
| 2026-04-13 14:22 | 50.50966 | 10.92324 | 33382 ft | 438 kts | 284° |
| 2026-04-13 14:22 | 50.51949 | 10.87815 | 33110 ft | 436 kts | 284° |
| 2026-04-13 14:22 | 50.52916 | 10.83388 | 32850 ft | 433 kts | 284° |
| 2026-04-13 14:23 | 50.53896 | 10.78927 | 32581 ft | 431 kts | 284° |
| 2026-04-13 14:23 | 50.54889 | 10.74498 | 32317 ft | 428 kts | 285° |
| 2026-04-13 14:23 | 50.55890 | 10.70098 | 32051 ft | 426 kts | 285° |
| 2026-04-13 14:23 | 50.56887 | 10.65727 | 31794 ft | 423 kts | 285° |
| 2026-04-13 14:24 | 50.57879 | 10.61385 | 31539 ft | 421 kts | 285° |
| 2026-04-13 14:24 | 50.58865 | 10.57062 | 31295 ft | 419 kts | 285° |
| 2026-04-13 14:24 | 50.59842 | 10.52755 | 31033 ft | 416 kts | 285° |
| 2026-04-13 14:24 | 50.60808 | 10.48470 | 30783 ft | 414 kts | 285° |
| 2026-04-13 14:25 | 50.61763 | 10.44215 | 30451 ft | 411 kts | 285° |
| 2026-04-13 14:25 | 50.62711 | 10.39990 | 30053 ft | 407 kts | 285° |
| 2026-04-13 14:25 | 50.63503 | 10.35755 | 29607 ft | 399 kts | 276° |
| 2026-04-13 14:25 | 50.63830 | 10.31527 | 29170 ft | 390 kts | 267° |
| 2026-04-13 14:26 | 50.63727 | 10.27313 | 28734 ft | 381 kts | 258° |
| 2026-04-13 14:26 | 50.63214 | 10.23205 | 28307 ft | 373 kts | 249° |
| 2026-04-13 14:26 | 50.62342 | 10.19412 | 27905 ft | 366 kts | 241° |
| 2026-04-13 14:26 | 50.61192 | 10.15939 | 27491 ft | 361 kts | 237° |
| 2026-04-13 14:27 | 50.59994 | 10.12495 | 27072 ft | 358 kts | 237° |
| 2026-04-13 14:27 | 50.58805 | 10.09065 | 26649 ft | 355 kts | 237° |
| 2026-04-13 14:27 | 50.57627 | 10.05668 | 26230 ft | 352 kts | 237° |
| 2026-04-13 14:27 | 50.56456 | 10.02307 | 25827 ft | 349 kts | 237° |
| 2026-04-13 14:28 | 50.55292 | 9.98977 | 25417 ft | 346 kts | 237° |
| 2026-04-13 14:28 | 50.54205 | 9.95602 | 25003 ft | 346 kts | 244° |
| 2026-04-13 14:28 | 50.53467 | 9.92006 | 24596 ft | 346 kts | 250° |
| 2026-04-13 14:28 | 50.52828 | 9.88376 | 24183 ft | 343 kts | 250° |
| 2026-04-13 14:29 | 50.52184 | 9.84778 | 23931 ft | 341 kts | 250° |
| 2026-04-13 14:29 | 50.51532 | 9.81200 | 23911 ft | 341 kts | 249° |
| 2026-04-13 14:29 | 50.50878 | 9.77610 | 23919 ft | 342 kts | 250° |
| 2026-04-13 14:29 | 50.50226 | 9.74021 | 23792 ft | 343 kts | 250° |
| 2026-04-13 14:30 | 50.49586 | 9.70429 | 23561 ft | 341 kts | 250° |
| 2026-04-13 14:30 | 50.48965 | 9.66843 | 23303 ft | 339 kts | 250° |
| 2026-04-13 14:30 | 50.48356 | 9.63278 | 22913 ft | 337 kts | 250° |
| 2026-04-13 14:30 | 50.47745 | 9.59746 | 22448 ft | 333 kts | 248° |
| 2026-04-13 14:31 | 50.46854 | 9.56430 | 21983 ft | 327 kts | 237° |
| 2026-04-13 14:31 | 50.45720 | 9.53356 | 21523 ft | 325 kts | 236° |
| 2026-04-13 14:31 | 50.44580 | 9.50291 | 21065 ft | 324 kts | 236° |
| 2026-04-13 14:31 | 50.43445 | 9.47240 | 20622 ft | 323 kts | 236° |
| 2026-04-13 14:32 | 50.42328 | 9.44186 | 20192 ft | 323 kts | 240° |
| 2026-04-13 14:32 | 50.41653 | 9.40815 | 19929 ft | 328 kts | 255° |
| 2026-04-13 14:32 | 50.41209 | 9.37307 | 19912 ft | 329 kts | 255° |
| 2026-04-13 14:32 | 50.40762 | 9.33827 | 19917 ft | 330 kts | 255° |
| 2026-04-13 14:33 | 50.40304 | 9.30296 | 19920 ft | 330 kts | 255° |
| 2026-04-13 14:33 | 50.39840 | 9.26724 | 19918 ft | 329 kts | 255° |
| 2026-04-13 14:33 | 50.39393 | 9.23274 | 19579 ft | 327 kts | 255° |
| 2026-04-13 14:33 | 50.38944 | 9.19783 | 19173 ft | 326 kts | 255° |
| 2026-04-13 14:34 | 50.38493 | 9.16300 | 18785 ft | 325 kts | 255° |
| 2026-04-13 14:34 | 50.38041 | 9.12832 | 18408 ft | 324 kts | 255° |
| 2026-04-13 14:34 | 50.37588 | 9.09363 | 17867 ft | 327 kts | 255° |
| 2026-04-13 14:34 | 50.37127 | 9.05853 | 17252 ft | 331 kts | 255° |
| 2026-04-13 14:35 | 50.36660 | 9.02300 | 16648 ft | 335 kts | 255° |
| 2026-04-13 14:35 | 50.36189 | 8.98705 | 16057 ft | 338 kts | 256° |
| 2026-04-13 14:35 | 50.35714 | 8.95077 | 15474 ft | 341 kts | 256° |
| 2026-04-13 14:35 | 50.35235 | 8.91425 | 14905 ft | 343 kts | 256° |
| 2026-04-13 14:36 | 50.34749 | 8.87759 | 14346 ft | 345 kts | 256° |
| 2026-04-13 14:36 | 50.34260 | 8.84080 | 13795 ft | 346 kts | 256° |
| 2026-04-13 14:36 | 50.33770 | 8.80384 | 13186 ft | 346 kts | 256° |
| 2026-04-13 14:36 | 50.33278 | 8.76697 | 12576 ft | 344 kts | 256° |
| 2026-04-13 14:37 | 50.32792 | 8.73072 | 11981 ft | 337 kts | 255° |
| 2026-04-13 14:37 | 50.32316 | 8.69515 | 11399 ft | 332 kts | 255° |
| 2026-04-13 14:37 | 50.31853 | 8.66044 | 10833 ft | 327 kts | 255° |
| 2026-04-13 14:37 | 50.31392 | 8.62594 | 10273 ft | 322 kts | 255° |
| 2026-04-13 14:38 | 50.30937 | 8.59194 | 9712 ft | 317 kts | 255° |
| 2026-04-13 14:38 | 50.30479 | 8.55791 | 9087 ft | 313 kts | 255° |
| 2026-04-13 14:38 | 50.30039 | 8.52528 | 8496 ft | 309 kts | 255° |
| 2026-04-13 14:38 | 50.29589 | 8.49217 | 7900 ft | 304 kts | 256° |
| 2026-04-13 14:39 | 50.29150 | 8.46007 | 7318 ft | 300 kts | 256° |
| 2026-04-13 14:39 | 50.28720 | 8.42873 | 6762 ft | 298 kts | 256° |
| 2026-04-13 14:39 | 50.28288 | 8.39721 | 6190 ft | 296 kts | 257° |
| 2026-04-13 14:39 | 50.27856 | 8.36566 | 5578 ft | 297 kts | 257° |
| 2026-04-13 14:40 | 50.27425 | 8.33412 | 5070 ft | 295 kts | 257° |
| 2026-04-13 14:40 | 50.27007 | 8.30367 | 4928 ft | 277 kts | 257° |
| 2026-04-13 14:40 | 50.26612 | 8.27513 | 4937 ft | 265 kts | 257° |
| 2026-04-13 14:40 | 50.26223 | 8.24712 | 4946 ft | 264 kts | 257° |
| 2026-04-13 14:41 | 50.25834 | 8.21911 | 4948 ft | 263 kts | 257° |
| 2026-04-13 14:41 | 50.25345 | 8.19163 | 4947 ft | 263 kts | 248° |
| 2026-04-13 14:41 | 50.24474 | 8.16665 | 4949 ft | 262 kts | 234° |
| 2026-04-13 14:41 | 50.23254 | 8.14547 | 4946 ft | 263 kts | 221° |
| 2026-04-13 14:42 | 50.21767 | 8.12877 | 4949 ft | 264 kts | 213° |
| 2026-04-13 14:42 | 50.20232 | 8.11310 | 4946 ft | 264 kts | 213° |
| 2026-04-13 14:42 | 50.18701 | 8.09737 | 4944 ft | 263 kts | 213° |
| 2026-04-13 14:42 | 50.17175 | 8.08168 | 4947 ft | 263 kts | 214° |
| 2026-04-13 14:43 | 50.15664 | 8.06613 | 4944 ft | 263 kts | 214° |
| 2026-04-13 14:43 | 50.14132 | 8.05039 | 4945 ft | 263 kts | 214° |
| 2026-04-13 14:43 | 50.12601 | 8.03466 | 4942 ft | 263 kts | 214° |
| 2026-04-13 14:43 | 50.11067 | 8.01891 | 4905 ft | 262 kts | 214° |
| 2026-04-13 14:44 | 50.09538 | 8.00331 | 4465 ft | 261 kts | 212° |
| 2026-04-13 14:44 | 50.07863 | 7.99251 | 4060 ft | 262 kts | 194° |
| 2026-04-13 14:44 | 50.06045 | 7.99017 | 4001 ft | 265 kts | 176° |
| 2026-04-13 14:44 | 50.04235 | 7.99632 | 4006 ft | 268 kts | 160° |
| 2026-04-13 14:45 | 50.02490 | 8.00676 | 4006 ft | 269 kts | 160° |
| 2026-04-13 14:45 | 50.00745 | 8.01706 | 4007 ft | 268 kts | 160° |
| 2026-04-13 14:45 | 49.99001 | 8.02729 | 4007 ft | 268 kts | 159° |
| 2026-04-13 14:45 | 49.97367 | 8.04091 | 4007 ft | 265 kts | 143° |
| 2026-04-13 14:46 | 49.96140 | 8.06056 | 4007 ft | 250 kts | 124° |
| 2026-04-13 14:46 | 49.95372 | 8.08369 | 4008 ft | 234 kts | 108° |
| 2026-04-13 14:46 | 49.95035 | 8.10761 | 4004 ft | 221 kts | 97° |
| 2026-04-13 14:46 | 49.94795 | 8.13108 | 4005 ft | 220 kts | 98° |
| 2026-04-13 14:47 | 49.94547 | 8.15445 | 4008 ft | 220 kts | 98° |
| 2026-04-13 14:47 | 49.94394 | 8.16994 | 4007 ft | 219 kts | 94° |
| 2026-04-13 14:47 | 49.94542 | 8.19328 | 4008 ft | 217 kts | 71° |
| 2026-04-13 14:47 | 49.95050 | 8.21522 | 4009 ft | 212 kts | 68° |
| 2026-04-13 14:48 | 49.95546 | 8.23565 | 4031 ft | 194 kts | 68° |
| 2026-04-13 14:48 | 49.96000 | 8.25437 | 4002 ft | 175 kts | 67° |
| 2026-04-13 14:48 | 49.96413 | 8.27137 | 3904 ft | 162 kts | 67° |
| 2026-04-13 14:48 | 49.96803 | 8.28745 | 3720 ft | 156 kts | 67° |
| 2026-04-13 14:49 | 49.97180 | 8.30300 | 3527 ft | 152 kts | 67° |
| 2026-04-13 14:49 | 49.97549 | 8.31820 | 3328 ft | 149 kts | 67° |
| 2026-04-13 14:49 | 49.97908 | 8.33306 | 3134 ft | 145 kts | 66° |
| 2026-04-13 14:49 | 49.98260 | 8.34758 | 2934 ft | 143 kts | 67° |
| 2026-04-13 14:50 | 49.98602 | 8.36173 | 2750 ft | 142 kts | 67° |
| 2026-04-13 14:50 | 49.98952 | 8.37623 | 2549 ft | 141 kts | 66° |
| 2026-04-13 14:50 | 49.99297 | 8.39049 | 2359 ft | 141 kts | 66° |
| 2026-04-13 14:50 | 49.99634 | 8.40448 | 2162 ft | 140 kts | 66° |
| 2026-04-13 14:51 | 49.99976 | 8.41867 | 1965 ft | 140 kts | 67° |
| 2026-04-13 14:51 | 50.00318 | 8.43285 | 1775 ft | 140 kts | 67° |
| 2026-04-13 14:51 | 50.00658 | 8.44695 | 1575 ft | 140 kts | 67° |
| 2026-04-13 14:51 | 50.00995 | 8.46112 | 1394 ft | 140 kts | 67° |
| 2026-04-13 14:52 | 50.01325 | 8.47533 | 1164 ft | 140 kts | 68° |
| 2026-04-13 14:52 | 50.01662 | 8.48944 | 970 ft | 139 kts | 67° |
| 2026-04-13 14:52 | 50.01995 | 8.50351 | 804 ft | 139 kts | 69° |
| 2026-04-13 14:52 | 50.02321 | 8.51697 | 616 ft | 140 kts | 69° |
| 2026-04-13 14:53 | 50.02669 | 8.53089 | 404 ft | 139 kts | 66° |
| 2026-04-13 14:53 | 50.03002 | 8.54440 | 332 ft | 114 kts | 69° |
| 2026-04-13 14:53 | 50.03193 | 8.55256 | 347 ft | 63 kts | 70° |
| 2026-04-13 14:53 | 50.03326 | 8.55808 | 348 ft | 48 kts | 70° |
| 2026-04-13 14:54 | 50.03423 | 8.56198 | 356 ft | 23 kts | 58° |
| 2026-04-13 14:54 | 50.03468 | 8.56388 | 355 ft | 17 kts | 71° |
| 2026-04-13 14:54 | 50.03510 | 8.56574 | 357 ft | 20 kts | 71° |
| 2026-04-13 14:54 | 50.03558 | 8.56780 | 351 ft | 21 kts | 69° |
| 2026-04-13 14:55 | 50.03624 | 8.56961 | 351 ft | 19 kts | 53° |
| 2026-04-13 14:55 | 50.03700 | 8.57045 | 356 ft | 8 kts | 351° |
| 2026-04-13 14:55 | 50.03740 | 8.57021 | 360 ft | 0 kts | 332° |